sensor_id;sensor_type;location;lat;lon;timestamp;temperature;humidity
43647;DHT22;56152;49.996;18.980;2024-03-06T00:04:39;3.30;98.40
43647;DHT22;56152;49.996;18.980;2024-03-06T00:09:42;3.30;98.40
43647;DHT22;56152;49.996;18.980;2024-03-06T00:14:47;3.20;98.50
43647;DHT22;56152;49.996;18.980;2024-03-06T00:19:49;3.10;98.50
43647;DHT22;56152;49.996;18.980;2024-03-06T00:24:52;3.10;98.50
43647;DHT22;56152;49.996;18.980;2024-03-06T00:29:56;3.00;98.50
43647;DHT22;56152;49.996;18.980;2024-03-06T00:34:58;2.90;98.60
43647;DHT22;56152;49.996;18.980;2024-03-06T00:40:00;2.90;98.70
43647;DHT22;56152;49.996;18.980;2024-03-06T00:45:05;2.80;98.70
43647;DHT22;56152;49.996;18.980;2024-03-06T00:50:09;2.80;98.70
43647;DHT22;56152;49.996;18.980;2024-03-06T00:55:14;2.80;98.70
43647;DHT22;56152;49.996;18.980;2024-03-06T01:00:20;2.80;98.70
43647;DHT22;56152;49.996;18.980;2024-03-06T01:05:22;2.70;98.70
43647;DHT22;56152;49.996;18.980;2024-03-06T01:10:25;2.70;98.70
43647;DHT22;56152;49.996;18.980;2024-03-06T01:15:28;2.60;98.70
43647;DHT22;56152;49.996;18.980;2024-03-06T01:20:30;2.60;98.70
43647;DHT22;56152;49.996;18.980;2024-03-06T01:25:33;2.60;98.80
43647;DHT22;56152;49.996;18.980;2024-03-06T01:30:37;2.50;98.70
43647;DHT22;56152;49.996;18.980;2024-03-06T01:35:39;2.40;98.70
43647;DHT22;56152;49.996;18.980;2024-03-06T01:40:43;2.30;98.70
43647;DHT22;56152;49.996;18.980;2024-03-06T01:45:48;2.20;98.80
43647;DHT22;56152;49.996;18.980;2024-03-06T01:50:51;2.20;99.00
43647;DHT22;56152;49.996;18.980;2024-03-06T01:55:54;2.20;98.90
43647;DHT22;56152;49.996;18.980;2024-03-06T02:00:59;2.20;99.00
43647;DHT22;56152;49.996;18.980;2024-03-06T02:06:03;2.20;99.00
43647;DHT22;56152;49.996;18.980;2024-03-06T02:11:06;2.20;98.90
43647;DHT22;56152;49.996;18.980;2024-03-06T02:16:10;2.20;98.90
43647;DHT22;56152;49.996;18.980;2024-03-06T02:21:14;2.20;98.90
43647;DHT22;56152;49.996;18.980;2024-03-06T02:26:16;2.10;98.90
43647;DHT22;56152;49.996;18.980;2024-03-06T02:31:19;2.00;99.00
43647;DHT22;56152;49.996;18.980;2024-03-06T02:36:27;1.80;99.00
43647;DHT22;56152;49.996;18.980;2024-03-06T02:41:30;1.70;99.10
43647;DHT22;56152;49.996;18.980;2024-03-06T02:46:32;1.60;99.10
43647;DHT22;56152;49.996;18.980;2024-03-06T02:51:36;1.50;99.20
43647;DHT22;56152;49.996;18.980;2024-03-06T02:56:38;1.50;99.20
43647;DHT22;56152;49.996;18.980;2024-03-06T03:01:42;1.40;99.20
43647;DHT22;56152;49.996;18.980;2024-03-06T03:06:46;1.40;99.30
43647;DHT22;56152;49.996;18.980;2024-03-06T03:11:48;1.40;99.30
43647;DHT22;56152;49.996;18.980;2024-03-06T03:16:50;1.30;99.30
43647;DHT22;56152;49.996;18.980;2024-03-06T03:21:54;1.30;99.30
43647;DHT22;56152;49.996;18.980;2024-03-06T03:26:56;1.20;99.30
43647;DHT22;56152;49.996;18.980;2024-03-06T03:31:57;1.10;99.20
43647;DHT22;56152;49.996;18.980;2024-03-06T03:37:01;1.00;99.20
43647;DHT22;56152;49.996;18.980;2024-03-06T03:42:06;1.00;99.30
43647;DHT22;56152;49.996;18.980;2024-03-06T03:47:17;0.90;99.20
43647;DHT22;56152;49.996;18.980;2024-03-06T03:52:21;0.80;99.20
43647;DHT22;56152;49.996;18.980;2024-03-06T03:57:25;0.80;99.20
43647;DHT22;56152;49.996;18.980;2024-03-06T04:02:27;0.70;99.20
43647;DHT22;56152;49.996;18.980;2024-03-06T04:07:31;0.60;99.20
43647;DHT22;56152;49.996;18.980;2024-03-06T04:12:33;0.60;99.30
43647;DHT22;56152;49.996;18.980;2024-03-06T04:17:36;0.50;99.30
43647;DHT22;56152;49.996;18.980;2024-03-06T04:22:42;0.50;99.30
43647;DHT22;56152;49.996;18.980;2024-03-06T04:27:44;0.50;99.40
43647;DHT22;56152;49.996;18.980;2024-03-06T04:32:47;0.50;99.40
43647;DHT22;56152;49.996;18.980;2024-03-06T04:37:51;0.40;99.30
43647;DHT22;56152;49.996;18.980;2024-03-06T04:42:53;0.40;99.40
43647;DHT22;56152;49.996;18.980;2024-03-06T04:47:55;0.30;99.30
43647;DHT22;56152;49.996;18.980;2024-03-06T04:52:59;0.20;99.40
43647;DHT22;56152;49.996;18.980;2024-03-06T04:58:01;0.20;99.50
43647;DHT22;56152;49.996;18.980;2024-03-06T05:03:04;0.20;99.50
43647;DHT22;56152;49.996;18.980;2024-03-06T05:08:08;0.10;99.40
43647;DHT22;56152;49.996;18.980;2024-03-06T05:13:11;0.10;99.50
43647;DHT22;56152;49.996;18.980;2024-03-06T05:18:13;0.00;99.40
43647;DHT22;56152;49.996;18.980;2024-03-06T05:23:18;0.00;99.50
43647;DHT22;56152;49.996;18.980;2024-03-06T05:28:20;0.00;99.50
43647;DHT22;56152;49.996;18.980;2024-03-06T05:33:22;0.00;99.50
43647;DHT22;56152;49.996;18.980;2024-03-06T05:38:26;-0.10;99.50
43647;DHT22;56152;49.996;18.980;2024-03-06T05:43:28;-0.10;99.50
43647;DHT22;56152;49.996;18.980;2024-03-06T05:48:31;0.00;99.50
43647;DHT22;56152;49.996;18.980;2024-03-06T05:53:43;0.00;99.50
43647;DHT22;56152;49.996;18.980;2024-03-06T05:58:45;0.00;99.50
43647;DHT22;56152;49.996;18.980;2024-03-06T06:03:48;0.00;99.50
43647;DHT22;56152;49.996;18.980;2024-03-06T06:08:51;0.10;99.40
43647;DHT22;56152;49.996;18.980;2024-03-06T06:13:56;0.10;99.40
43647;DHT22;56152;49.996;18.980;2024-03-06T06:18:58;0.20;99.40
43647;DHT22;56152;49.996;18.980;2024-03-06T06:24:01;0.30;99.30
43647;DHT22;56152;49.996;18.980;2024-03-06T06:29:04;0.30;99.30
43647;DHT22;56152;49.996;18.980;2024-03-06T06:34:06;0.40;99.30
43647;DHT22;56152;49.996;18.980;2024-03-06T06:39:10;0.40;99.20
43647;DHT22;56152;49.996;18.980;2024-03-06T06:44:14;0.50;99.20
43647;DHT22;56152;49.996;18.980;2024-03-06T06:49:15;0.50;99.30
43647;DHT22;56152;49.996;18.980;2024-03-06T06:54:19;0.70;99.30
43647;DHT22;56152;49.996;18.980;2024-03-06T06:59:22;0.80;99.30
43647;DHT22;56152;49.996;18.980;2024-03-06T07:04:24;1.00;99.30
43647;DHT22;56152;49.996;18.980;2024-03-06T07:09:28;1.10;99.20
43647;DHT22;56152;49.996;18.980;2024-03-06T07:14:30;1.20;99.10
43647;DHT22;56152;49.996;18.980;2024-03-06T07:19:32;1.20;99.10
43647;DHT22;56152;49.996;18.980;2024-03-06T07:24:35;1.40;99.20
43647;DHT22;56152;49.996;18.980;2024-03-06T07:29:38;1.50;99.00
43647;DHT22;56152;49.996;18.980;2024-03-06T07:34:41;1.50;99.20
43647;DHT22;56152;49.996;18.980;2024-03-06T07:39:44;1.60;99.10
43647;DHT22;56152;49.996;18.980;2024-03-06T07:44:46;1.70;99.20
43647;DHT22;56152;49.996;18.980;2024-03-06T07:49:49;1.80;99.10
43647;DHT22;56152;49.996;18.980;2024-03-06T07:54:52;2.00;99.10
43647;DHT22;56152;49.996;18.980;2024-03-06T07:59:54;2.00;99.00
43647;DHT22;56152;49.996;18.980;2024-03-06T08:04:56;2.00;99.10
43647;DHT22;56152;49.996;18.980;2024-03-06T08:10:00;2.10;99.20
43647;DHT22;56152;49.996;18.980;2024-03-06T08:15:03;2.10;99.20
43647;DHT22;56152;49.996;18.980;2024-03-06T08:20:06;2.30;99.20
43647;DHT22;56152;49.996;18.980;2024-03-06T08:25:12;2.40;99.10
43647;DHT22;56152;49.996;18.980;2024-03-06T08:30:14;2.50;99.00
43647;DHT22;56152;49.996;18.980;2024-03-06T08:35:17;2.50;99.00
43647;DHT22;56152;49.996;18.980;2024-03-06T08:40:21;2.60;99.00
43647;DHT22;56152;49.996;18.980;2024-03-06T08:45:26;2.70;98.80
43647;DHT22;56152;49.996;18.980;2024-03-06T08:50:28;2.70;98.90
43647;DHT22;56152;49.996;18.980;2024-03-06T08:55:31;2.80;99.00
43647;DHT22;56152;49.996;18.980;2024-03-06T09:00:33;3.00;98.90
43647;DHT22;56152;49.996;18.980;2024-03-06T09:05:35;3.10;98.80
43647;DHT22;56152;49.996;18.980;2024-03-06T09:10:38;3.00;98.70
43647;DHT22;56152;49.996;18.980;2024-03-06T09:15:41;3.20;98.80
43647;DHT22;56152;49.996;18.980;2024-03-06T09:20:46;3.40;98.70
43647;DHT22;56152;49.996;18.980;2024-03-06T09:25:49;3.60;98.60
43647;DHT22;56152;49.996;18.980;2024-03-06T09:30:51;3.90;98.50
43647;DHT22;56152;49.996;18.980;2024-03-06T09:35:53;4.20;98.30
43647;DHT22;56152;49.996;18.980;2024-03-06T09:40:59;4.40;98.10
43647;DHT22;56152;49.996;18.980;2024-03-06T09:46:01;4.50;98.00
43647;DHT22;56152;49.996;18.980;2024-03-06T09:51:08;4.50;97.80
43647;DHT22;56152;49.996;18.980;2024-03-06T09:56:13;4.50;98.00
43647;DHT22;56152;49.996;18.980;2024-03-06T10:01:15;4.80;98.00
43647;DHT22;56152;49.996;18.980;2024-03-06T10:06:17;5.10;97.90
43647;DHT22;56152;49.996;18.980;2024-03-06T10:11:20;5.60;97.60
43647;DHT22;56152;49.996;18.980;2024-03-06T10:16:25;6.00;96.80
43647;DHT22;56152;49.996;18.980;2024-03-06T10:21:32;6.60;96.40
43647;DHT22;56152;49.996;18.980;2024-03-06T10:26:36;6.60;96.20
43647;DHT22;56152;49.996;18.980;2024-03-06T10:31:38;6.50;95.90
43647;DHT22;56152;49.996;18.980;2024-03-06T10:36:40;6.30;96.20
43647;DHT22;56152;49.996;18.980;2024-03-06T10:41:44;6.30;96.20
43647;DHT22;56152;49.996;18.980;2024-03-06T10:46:50;6.30;96.20
43647;DHT22;56152;49.996;18.980;2024-03-06T10:51:57;6.30;96.00
43647;DHT22;56152;49.996;18.980;2024-03-06T10:57:01;6.20;96.10
43647;DHT22;56152;49.996;18.980;2024-03-06T11:02:03;6.00;96.00
43647;DHT22;56152;49.996;18.980;2024-03-06T11:07:05;5.90;96.10
43647;DHT22;56152;49.996;18.980;2024-03-06T11:12:09;5.80;96.00
43647;DHT22;56152;49.996;18.980;2024-03-06T11:17:11;5.70;95.90
43647;DHT22;56152;49.996;18.980;2024-03-06T11:22:13;5.60;95.90
43647;DHT22;56152;49.996;18.980;2024-03-06T11:27:18;5.50;96.00
43647;DHT22;56152;49.996;18.980;2024-03-06T11:32:23;5.40;96.00
43647;DHT22;56152;49.996;18.980;2024-03-06T11:37:25;5.30;96.10
43647;DHT22;56152;49.996;18.980;2024-03-06T11:42:35;5.30;96.40
43647;DHT22;56152;49.996;18.980;2024-03-06T11:48:01;5.30;96.10
43647;DHT22;56152;49.996;18.980;2024-03-06T11:53:04;5.20;96.10
43647;DHT22;56152;49.996;18.980;2024-03-06T11:58:08;5.20;96.20
43647;DHT22;56152;49.996;18.980;2024-03-06T12:03:12;5.10;96.10
43647;DHT22;56152;49.996;18.980;2024-03-06T12:08:14;5.10;96.20
43647;DHT22;56152;49.996;18.980;2024-03-06T12:13:22;5.10;96.20
43647;DHT22;56152;49.996;18.980;2024-03-06T12:18:25;4.90;96.20
43647;DHT22;56152;49.996;18.980;2024-03-06T12:23:27;4.90;96.30
43647;DHT22;56152;49.996;18.980;2024-03-06T12:28:31;4.90;96.30
43647;DHT22;56152;49.996;18.980;2024-03-06T12:33:32;4.80;96.40
43647;DHT22;56152;49.996;18.980;2024-03-06T12:38:35;4.80;96.50
43647;DHT22;56152;49.996;18.980;2024-03-06T12:43:39;4.80;96.50
43647;DHT22;56152;49.996;18.980;2024-03-06T12:48:41;4.80;96.50
43647;DHT22;56152;49.996;18.980;2024-03-06T12:53:43;4.80;96.60
43647;DHT22;56152;49.996;18.980;2024-03-06T12:58:46;4.70;96.60
43647;DHT22;56152;49.996;18.980;2024-03-06T13:03:50;4.80;96.80
43647;DHT22;56152;49.996;18.980;2024-03-06T13:08:52;4.80;96.80
43647;DHT22;56152;49.996;18.980;2024-03-06T13:13:56;4.80;96.80
43647;DHT22;56152;49.996;18.980;2024-03-06T13:18:58;4.80;96.80
43647;DHT22;56152;49.996;18.980;2024-03-06T13:24:03;4.80;96.90
43647;DHT22;56152;49.996;18.980;2024-03-06T13:29:06;4.80;96.90
43647;DHT22;56152;49.996;18.980;2024-03-06T13:34:08;4.80;96.90
43647;DHT22;56152;49.996;18.980;2024-03-06T13:39:10;4.70;96.90
43647;DHT22;56152;49.996;18.980;2024-03-06T13:44:14;4.60;96.90
43647;DHT22;56152;49.996;18.980;2024-03-06T13:49:37;4.60;97.10
43647;DHT22;56152;49.996;18.980;2024-03-06T13:54:41;4.50;97.20
43647;DHT22;56152;49.996;18.980;2024-03-06T13:59:46;4.50;97.30
43647;DHT22;56152;49.996;18.980;2024-03-06T14:04:48;4.40;97.30
43647;DHT22;56152;49.996;18.980;2024-03-06T14:09:50;4.40;97.40
43647;DHT22;56152;49.996;18.980;2024-03-06T14:14:54;4.40;97.50
43647;DHT22;56152;49.996;18.980;2024-03-06T14:19:56;4.40;97.60
43647;DHT22;56152;49.996;18.980;2024-03-06T14:24:57;4.40;97.70
43647;DHT22;56152;49.996;18.980;2024-03-06T14:30:01;4.40;98.00
43647;DHT22;56152;49.996;18.980;2024-03-06T14:35:04;4.40;97.80
43647;DHT22;56152;49.996;18.980;2024-03-06T14:40:07;4.40;97.80
43647;DHT22;56152;49.996;18.980;2024-03-06T14:45:10;4.40;97.80
43647;DHT22;56152;49.996;18.980;2024-03-06T14:50:13;4.40;97.90
43647;DHT22;56152;49.996;18.980;2024-03-06T14:55:15;4.30;97.90
43647;DHT22;56152;49.996;18.980;2024-03-06T15:00:19;4.30;98.00
43647;DHT22;56152;49.996;18.980;2024-03-06T15:05:22;4.30;98.10
43647;DHT22;56152;49.996;18.980;2024-03-06T15:10:26;4.30;98.00
43647;DHT22;56152;49.996;18.980;2024-03-06T15:15:29;4.30;98.10
43647;DHT22;56152;49.996;18.980;2024-03-06T15:20:31;4.30;98.20
43647;DHT22;56152;49.996;18.980;2024-03-06T15:25:33;4.20;98.20
43647;DHT22;56152;49.996;18.980;2024-03-06T15:30:38;4.20;98.30
43647;DHT22;56152;49.996;18.980;2024-03-06T15:35:40;4.20;98.40
43647;DHT22;56152;49.996;18.980;2024-03-06T15:40:44;4.20;98.40
43647;DHT22;56152;49.996;18.980;2024-03-06T15:45:50;4.20;98.40
43647;DHT22;56152;49.996;18.980;2024-03-06T15:50:52;4.10;98.50
43647;DHT22;56152;49.996;18.980;2024-03-06T15:55:54;4.10;98.50
43647;DHT22;56152;49.996;18.980;2024-03-06T16:00:57;4.10;98.60
43647;DHT22;56152;49.996;18.980;2024-03-06T16:05:59;4.10;98.60
43647;DHT22;56152;49.996;18.980;2024-03-06T16:11:03;4.10;98.70
43647;DHT22;56152;49.996;18.980;2024-03-06T16:16:07;4.10;98.70
43647;DHT22;56152;49.996;18.980;2024-03-06T16:21:09;4.10;98.80
43647;DHT22;56152;49.996;18.980;2024-03-06T16:26:11;4.10;99.10
43647;DHT22;56152;49.996;18.980;2024-03-06T16:31:15;4.10;98.80
43647;DHT22;56152;49.996;18.980;2024-03-06T16:36:19;4.10;98.90
43647;DHT22;56152;49.996;18.980;2024-03-06T16:41:21;4.10;98.90
43647;DHT22;56152;49.996;18.980;2024-03-06T16:46:28;4.10;98.90
43647;DHT22;56152;49.996;18.980;2024-03-06T16:51:31;4.10;98.90
43647;DHT22;56152;49.996;18.980;2024-03-06T16:56:33;4.10;99.00
43647;DHT22;56152;49.996;18.980;2024-03-06T17:01:37;4.10;99.00
43647;DHT22;56152;49.996;18.980;2024-03-06T17:06:42;4.10;99.00
43647;DHT22;56152;49.996;18.980;2024-03-06T17:11:44;4.10;99.10
43647;DHT22;56152;49.996;18.980;2024-03-06T17:16:51;4.10;99.10
43647;DHT22;56152;49.996;18.980;2024-03-06T17:21:52;4.10;99.10
43647;DHT22;56152;49.996;18.980;2024-03-06T17:26:54;4.20;99.20
43647;DHT22;56152;49.996;18.980;2024-03-06T17:31:58;4.40;99.10
43647;DHT22;56152;49.996;18.980;2024-03-06T17:37:07;4.50;98.90
43647;DHT22;56152;49.996;18.980;2024-03-06T17:42:24;4.40;98.90
43647;DHT22;56152;49.996;18.980;2024-03-06T17:47:28;4.40;98.90
43647;DHT22;56152;49.996;18.980;2024-03-06T17:52:32;4.30;99.00
43647;DHT22;56152;49.996;18.980;2024-03-06T17:57:34;4.40;99.00
43647;DHT22;56152;49.996;18.980;2024-03-06T18:02:38;4.40;99.00
43647;DHT22;56152;49.996;18.980;2024-03-06T18:07:49;4.40;99.00
43647;DHT22;56152;49.996;18.980;2024-03-06T18:12:51;4.40;99.10
43647;DHT22;56152;49.996;18.980;2024-03-06T18:17:54;4.40;99.10
43647;DHT22;56152;49.996;18.980;2024-03-06T18:22:56;4.40;99.10
43647;DHT22;56152;49.996;18.980;2024-03-06T18:27:58;4.50;99.10
43647;DHT22;56152;49.996;18.980;2024-03-06T18:33:02;4.50;99.00
43647;DHT22;56152;49.996;18.980;2024-03-06T18:38:04;4.40;99.10
43647;DHT22;56152;49.996;18.980;2024-03-06T18:43:06;4.40;99.10
43647;DHT22;56152;49.996;18.980;2024-03-06T18:48:13;4.40;99.10
43647;DHT22;56152;49.996;18.980;2024-03-06T18:53:15;4.40;99.20
43647;DHT22;56152;49.996;18.980;2024-03-06T18:58:17;4.40;99.20
43647;DHT22;56152;49.996;18.980;2024-03-06T19:03:24;4.30;99.20
43647;DHT22;56152;49.996;18.980;2024-03-06T19:08:29;4.30;99.20
43647;DHT22;56152;49.996;18.980;2024-03-06T19:13:30;4.30;99.20
43647;DHT22;56152;49.996;18.980;2024-03-06T19:18:37;4.30;99.20
43647;DHT22;56152;49.996;18.980;2024-03-06T19:23:39;4.40;99.20
43647;DHT22;56152;49.996;18.980;2024-03-06T19:28:44;4.40;99.20
43647;DHT22;56152;49.996;18.980;2024-03-06T19:33:47;4.40;99.30
43647;DHT22;56152;49.996;18.980;2024-03-06T19:38:49;4.40;99.30
43647;DHT22;56152;49.996;18.980;2024-03-06T19:43:54;4.30;99.30
43647;DHT22;56152;49.996;18.980;2024-03-06T19:48:58;4.30;99.30
43647;DHT22;56152;49.996;18.980;2024-03-06T19:54:00;4.30;99.30
43647;DHT22;56152;49.996;18.980;2024-03-06T19:59:02;4.20;99.30
43647;DHT22;56152;49.996;18.980;2024-03-06T20:04:06;4.20;99.40
43647;DHT22;56152;49.996;18.980;2024-03-06T20:09:08;4.10;99.30
43647;DHT22;56152;49.996;18.980;2024-03-06T20:14:14;4.00;99.40
43647;DHT22;56152;49.996;18.980;2024-03-06T20:19:18;3.90;99.30
43647;DHT22;56152;49.996;18.980;2024-03-06T20:24:23;3.90;99.40
43647;DHT22;56152;49.996;18.980;2024-03-06T20:29:27;3.90;99.40
43647;DHT22;56152;49.996;18.980;2024-03-06T20:34:30;3.90;99.50
43647;DHT22;56152;49.996;18.980;2024-03-06T20:39:33;3.90;99.50
43647;DHT22;56152;49.996;18.980;2024-03-06T20:44:36;3.90;99.50
43647;DHT22;56152;49.996;18.980;2024-03-06T20:49:39;3.90;99.50
43647;DHT22;56152;49.996;18.980;2024-03-06T20:54:41;3.90;99.50
43647;DHT22;56152;49.996;18.980;2024-03-06T20:59:43;3.80;99.40
43647;DHT22;56152;49.996;18.980;2024-03-06T21:04:49;3.80;99.40
43647;DHT22;56152;49.996;18.980;2024-03-06T21:09:51;3.70;99.50
43647;DHT22;56152;49.996;18.980;2024-03-06T21:14:53;3.70;99.50
43647;DHT22;56152;49.996;18.980;2024-03-06T21:20:00;3.70;99.50
43647;DHT22;56152;49.996;18.980;2024-03-06T21:25:12;3.70;99.60
43647;DHT22;56152;49.996;18.980;2024-03-06T21:30:14;3.70;99.60
43647;DHT22;56152;49.996;18.980;2024-03-06T21:35:20;3.70;99.50
43647;DHT22;56152;49.996;18.980;2024-03-06T21:40:25;3.60;99.60
43647;DHT22;56152;49.996;18.980;2024-03-06T21:45:29;3.60;99.50
43647;DHT22;56152;49.996;18.980;2024-03-06T21:50:32;3.60;99.60
43647;DHT22;56152;49.996;18.980;2024-03-06T21:55:34;3.50;99.60
43647;DHT22;56152;49.996;18.980;2024-03-06T22:00:36;3.50;99.50
43647;DHT22;56152;49.996;18.980;2024-03-06T22:05:40;3.50;99.60
43647;DHT22;56152;49.996;18.980;2024-03-06T22:10:42;3.40;99.60
43647;DHT22;56152;49.996;18.980;2024-03-06T22:15:44;3.40;99.50
43647;DHT22;56152;49.996;18.980;2024-03-06T22:20:52;3.30;99.50
43647;DHT22;56152;49.996;18.980;2024-03-06T22:25:54;3.30;99.50
43647;DHT22;56152;49.996;18.980;2024-03-06T22:30:56;3.30;99.50
43647;DHT22;56152;49.996;18.980;2024-03-06T22:36:00;3.30;99.80
43647;DHT22;56152;49.996;18.980;2024-03-06T22:41:02;3.30;99.60
43647;DHT22;56152;49.996;18.980;2024-03-06T22:46:04;3.30;99.60
43647;DHT22;56152;49.996;18.980;2024-03-06T22:51:07;3.30;99.50
43647;DHT22;56152;49.996;18.980;2024-03-06T22:56:11;3.20;99.50
43647;DHT22;56152;49.996;18.980;2024-03-06T23:01:14;3.20;99.60
43647;DHT22;56152;49.996;18.980;2024-03-06T23:06:17;3.20;99.50
43647;DHT22;56152;49.996;18.980;2024-03-06T23:11:20;3.20;99.60
43647;DHT22;56152;49.996;18.980;2024-03-06T23:16:22;3.20;99.60
43647;DHT22;56152;49.996;18.980;2024-03-06T23:21:26;3.10;99.60
43647;DHT22;56152;49.996;18.980;2024-03-06T23:26:28;3.10;99.60
43647;DHT22;56152;49.996;18.980;2024-03-06T23:31:31;3.10;99.60
43647;DHT22;56152;49.996;18.980;2024-03-06T23:36:36;3.10;99.70
43647;DHT22;56152;49.996;18.980;2024-03-06T23:41:40;3.10;99.70
43647;DHT22;56152;49.996;18.980;2024-03-06T23:46:42;3.10;99.70
43647;DHT22;56152;49.996;18.980;2024-03-06T23:51:46;3.10;99.80
43647;DHT22;56152;49.996;18.980;2024-03-06T23:56:49;3.10;99.80
